Bailey Creek, Kentucky
Current Conditions -  °F | °C
As of 2:15 PM on Sunday 21 Dec 2014 (Local Time) from KI35 Reporting Station
Clear Clear  
Wind Chill: 50°   Ceiling: Unl
Heat Index: 50°   Visibility: 10mi
Dew Point: 30°   Wind: 3mph
Humidity: 47%   Direction: 280°W
Pressure: 30.15"   Gusts: NA
Location:  36.8509°N, 83.1611°W
Report Text: KI35 211915Z AUTO 28003KT 10SM CLR 10/M01 A3015 RMK AO1
Loading
Personal Weather Stations






























Interactive Weather Map New forecast layout! Learn more

10-Day Weather Forecast

Advertisements
Track Severe Weather on mobile